In Rescue
 
Open Full Screen Window  High Contrast Mode
Wind Gusting 00 knots
05
April 19, 2021 9:36 PM EDT
Present Weather: Light Rain
Weather Information
Wind Direction
  310 °
Wind Speed
  05 kt (6 mph)
Wind Gust
  00 kt (0 mph)
Altimeter
29.85 in
Visibility
10 SM
Temperature
06° C
43° F
Dewpoint
03° C
37° F
Humidity
81%
1hr Rain Fall
00.00 in.
24hr Rain Fall
00.00 in.
Sky Condition
Overcast @ 7,000 ft
Scattered @ 6,000 ft
Scattered @ 4,900 ft
VFR

METAR KONZ 200136Z AUTO 31005KT 10SM -RA SCT049 SCT060 OVC070 06/03 A2985 RMK AO2 T00600032

FAA Disclaimer: The data displayed is for advisory purposes only and is not to be used for flight planning or operations.